Time;durP1;ratioP1;P1;durP2;ratioP2;P2;SDS_P1;SDS_P2;PMS_P1;PMS_P2;Temp;Humidity;BMP_temperature;BMP_pressure;BME280_temperature;BME280_humidity;BME280_pressure;Samples;Min_cycle;Max_cycle;Signal;HPM_P1;HPM_P2
2021/03/02 00:00:15;;;;;;;;;;;;;;;1.81;75.37;100078.30;1671747;86;20148;-78
2021/03/02 00:02:43;;;;;;;;;;;;;;;1.78;75.45;100084.52;1671865;86;20156;-78
2021/03/02 00:05:11;;;;;;;;;;;;;;;1.74;75.50;100081.45;1671855;86;20480;-78
2021/03/02 00:07:39;;;;;;;;;;;;;;;1.68;75.50;100084.13;1671937;86;20145;-77
2021/03/02 00:10:12;;;;;;;;;;;;;;;1.64;75.63;100083.73;1671748;86;21801;-78
2021/03/02 00:12:40;;;;;;;;;;;;;;;1.61;75.76;100082.43;1671787;86;20180;-78
2021/03/02 00:15:10;;;;;;;;;;;;;;;1.57;75.96;100083.33;1671835;86;20144;-78
2021/03/02 00:17:47;;;;;;;;;;;;;;;1.51;76.03;100070.98;1645043;86;20157;-77
2021/03/02 00:20:24;;;;;;;;;;;;;;;1.46;76.12;100069.27;1671794;86;20140;-77
2021/03/02 00:23:10;;;;;;;;;;;;;;;1.39;76.32;100073.27;1671914;86;22108;-76
2021/03/02 00:25:40;;;;;;;;;;;;;;;1.33;76.33;100070.66;1671745;86;20183;-78
2021/03/02 00:28:09;;;;;;;;;;;;;;;1.28;76.51;100081.72;1671795;86;20161;-78
2021/03/02 00:30:37;;;;;;;;;;;;;;;1.22;76.59;100075.99;1671712;86;20562;-77
2021/03/02 00:33:08;;;;;;;;;;;;;;;1.17;76.73;100078.24;1671891;86;20136;-77
2021/03/02 00:35:36;;;;;;;;;;;;;;;1.10;76.91;100078.69;1671832;86;21797;-78
2021/03/02 00:38:04;;;;;;;;;;;;;;;1.05;77.04;100079.16;1671764;86;20140;-78
2021/03/02 00:40:32;;;;;;;;;;;;;;;1.00;77.19;100088.89;1671742;86;20124;-77
2021/03/02 00:42:59;;;;;;;;;;;;;;;0.95;77.31;100074.34;1670929;86;21042;-78
2021/03/02 00:45:26;;;;;;;;;;;;;;;0.93;77.44;100088.03;1666942;86;20166;-77
2021/03/02 00:47:56;;;;;;;;;;;;;;;0.87;77.64;100069.53;1666989;86;21739;-77
2021/03/02 00:50:23;;;;;;;;;;;;;;;0.83;77.84;100075.70;1666873;86;20120;-77
2021/03/02 00:52:51;;;;;;;;;;;;;;;0.80;77.96;100076.58;1666961;86;20224;-77
2021/03/02 00:55:20;;;;;;;;;;;;;;;0.77;78.01;100070.42;1666993;86;20161;-77
2021/03/02 00:57:48;;;;;;;;;;;;;;;0.75;78.15;100072.20;1667017;86;20445;-77
2021/03/02 01:00:17;;;;;;;;;;;;;;;0.72;78.22;100073.95;1668260;86;21647;-77
2021/03/02 01:02:47;;;;;;;;;;;;;;;0.70;78.29;100072.22;1666951;86;20161;-77
2021/03/02 01:05:15;;;;;;;;;;;;;;;0.68;78.42;100069.58;1666957;86;20173;-77
2021/03/02 01:07:43;;;;;;;;;;;;;;;0.68;78.59;100066.93;1667037;86;21467;-77
2021/03/02 01:10:13;;;;;;;;;;;;;;;0.66;78.53;100068.70;1666837;86;20429;-77
2021/03/02 01:12:41;;;;;;;;;;;;;;;0.67;78.63;100054.58;1666997;86;21271;-77
2021/03/02 01:15:11;;;;;;;;;;;;;;;0.69;78.80;100061.19;1666992;86;20500;-77
2021/03/02 01:17:38;;;;;;;;;;;;;;;0.70;78.84;100065.15;1667171;86;20160;-77
2021/03/02 01:20:07;;;;;;;;;;;;;;;0.74;79.01;100052.79;1667017;86;20161;-76
2021/03/02 01:22:36;;;;;;;;;;;;;;;0.77;79.08;100047.94;1667161;86;20141;-77
2021/03/02 01:25:09;;;;;;;;;;;;;;;0.81;79.14;100037.80;1666971;86;21811;-77
2021/03/02 01:27:36;;;;;;;;;;;;;;;0.84;79.13;100025.44;1666341;86;20661;-77
2021/03/02 01:30:08;;;;;;;;;;;;;;;0.87;79.09;100028.53;1667092;86;20489;-77
2021/03/02 01:32:36;;;;;;;;;;;;;;;0.89;79.05;100024.10;1667168;86;20157;-77
2021/03/02 01:35:10;;;;;;;;;;;;;;;0.89;78.96;100013.06;1667123;86;20137;-77
2021/03/02 01:37:40;;;;;;;;;;;;;;;0.92;78.84;100016.15;1667135;86;21282;-76
2021/03/02 01:40:11;;;;;;;;;;;;;;;0.94;78.65;100006.43;1667036;86;20907;-77
2021/03/02 01:42:38;;;;;;;;;;;;;;;0.92;78.52;100005.56;1667224;86;20156;-76
2021/03/02 01:45:09;;;;;;;;;;;;;;;0.89;78.49;100001.61;1666979;86;20129;-76
2021/03/02 01:47:36;;;;;;;;;;;;;;;0.85;78.46;100004.72;1667116;86;20140;-76
2021/03/02 01:50:05;;;;;;;;;;;;;;;0.80;78.43;100003.84;1667181;86;21931;-77
2021/03/02 01:52:33;;;;;;;;;;;;;;;0.75;78.46;99996.38;1666945;86;20145;-76
2021/03/02 01:55:00;;;;;;;;;;;;;;;0.69;78.39;99997.30;1666964;86;20212;-76
2021/03/02 01:57:27;;;;;;;;;;;;;;;0.63;78.46;100005.25;1667097;86;20474;-76
2021/03/02 01:59:55;;;;;;;;;;;;;;;0.56;78.65;100003.49;1667073;86;20140;-76
2021/03/02 02:02:28;;;;;;;;;;;;;;;0.50;78.88;100015.41;1667129;86;21660;-76
2021/03/02 02:04:56;;;;;;;;;;;;;;;0.44;79.07;100008.81;1666751;86;20132;-75
2021/03/02 02:07:39;;;;;;;;;;;;;;;0.41;79.15;100007.07;1646216;86;20140;-74
2021/03/02 02:10:21;;;;;;;;;;;;;;;0.36;79.25;100006.17;1667018;86;20157;-74
2021/03/02 02:12:56;;;;;;;;;;;;;;;0.31;79.41;100006.19;1667229;85;20123;-75
2021/03/02 02:15:26;;;;;;;;;;;;;;;0.27;79.48;100004.45;1673888;85;22274;-75
2021/03/02 02:18:03;;;;;;;;;;;;;;;0.24;79.54;99995.20;1673825;85;20155;-75
2021/03/02 02:20:38;;;;;;;;;;;;;;;0.21;79.55;99994.34;1673817;85;20139;-75
2021/03/02 02:23:16;;;;;;;;;;;;;;;0.15;79.62;99991.25;1673891;85;21355;-74
2021/03/02 02:25:57;;;;;;;;;;;;;;;0.11;79.80;99986.84;1673957;85;20508;-75
2021/03/02 02:28:24;;;;;;;;;;;;;;;0.06;79.94;99983.34;1673958;85;20475;-74
2021/03/02 02:30:55;;;;;;;;;;;;;;;0.02;79.98;99981.56;1675069;85;20164;-74
2021/03/02 02:33:23;;;;;;;;;;;;;;;-0.03;80.07;99987.75;1673821;85;20167;-74
2021/03/02 02:35:51;;;;;;;;;;;;;;;-0.06;80.19;99995.68;1673800;85;20143;-74
2021/03/02 02:38:22;;;;;;;;;;;;;;;-0.10;80.50;100000.52;1673796;85;20160;-74
2021/03/02 02:40:50;;;;;;;;;;;;;;;-0.14;80.65;99996.13;1673819;85;21216;-74
2021/03/02 02:43:17;;;;;;;;;;;;;;;-0.16;80.95;100001.83;1673856;85;20156;-74
2021/03/02 02:45:45;;;;;;;;;;;;;;;-0.16;81.12;100004.47;1673759;85;20147;-74
2021/03/02 02:48:12;;;;;;;;;;;;;;;-0.18;81.23;99998.32;1675150;85;20163;-74
2021/03/02 02:50:40;;;;;;;;;;;;;;;-0.17;81.21;99998.77;1673902;85;20483;-75
2021/03/02 02:53:08;;;;;;;;;;;;;;;-0.19;81.19;99995.23;1673818;85;21222;-74
2021/03/02 02:55:49;;;;;;;;;;;;;;;-0.22;81.17;99992.59;1641294;85;20135;-74
2021/03/02 02:58:20;;;;;;;;;;;;;;;-0.23;81.17;99985.11;1673928;85;20136;-74
2021/03/02 03:00:48;;;;;;;;;;;;;;;-0.26;81.17;99986.88;1673700;85;20164;-74
2021/03/02 03:03:18;;;;;;;;;;;;;;;-0.29;81.25;99984.24;1673939;85;20430;-75
2021/03/02 03:05:49;;;;;;;;;;;;;;;-0.33;81.29;99988.66;1673887;85;21285;-75
2021/03/02 03:08:21;;;;;;;;;;;;;;;-0.37;81.39;99985.11;1673575;85;20171;-74
2021/03/02 03:10:49;;;;;;;;;;;;;;;-0.40;81.37;99985.11;1673811;85;20155;-73
2021/03/02 03:13:18;;;;;;;;;;;;;;;-0.44;81.61;99990.38;1673769;85;20335;-73
2021/03/02 03:15:49;;;;;;;;;;;;;;;-0.47;81.89;99995.23;1673795;85;20163;-73
2021/03/02 03:18:16;;;;;;;;;;;;;;;-0.50;82.08;99991.27;1673822;85;21220;-74
2021/03/02 03:20:45;;;;;;;;;;;;;;;-0.52;82.14;99982.48;1673711;85;20160;-74
2021/03/02 03:23:14;;;;;;;;;;;;;;;-0.52;82.09;99978.94;1673799;85;20139;-74
2021/03/02 03:25:41;;;;;;;;;;;;;;;-0.54;82.11;99978.94;1673687;85;20163;-74
2021/03/02 03:28:08;;;;;;;;;;;;;;;-0.56;82.17;99978.06;1673931;85;20491;-74
2021/03/02 03:30:35;;;;;;;;;;;;;;;-0.58;82.23;99967.95;1675090;85;21659;-74
2021/03/02 03:33:11;;;;;;;;;;;;;;;-0.60;82.25;99967.05;1673791;85;20207;-74
2021/03/02 03:35:39;;;;;;;;;;;;;;;-0.61;82.30;99963.99;1673837;85;20164;-74
2021/03/02 03:38:07;;;;;;;;;;;;;;;-0.63;82.37;99961.35;1673717;85;20172;-74
2021/03/02 03:40:35;;;;;;;;;;;;;;;-0.67;82.37;99957.39;1673844;85;20159;-74
2021/03/02 03:43:03;;;;;;;;;;;;;;;-0.69;82.49;99951.20;1673826;85;21831;-73
2021/03/02 03:45:32;;;;;;;;;;;;;;;-0.71;82.57;99951.66;1673626;85;20144;-73
2021/03/02 03:48:00;;;;;;;;;;;;;;;-0.71;82.63;99954.29;1673803;85;20191;-73
2021/03/02 03:50:29;;;;;;;;;;;;;;;-0.74;82.65;99949.46;1673687;85;20143;-73
2021/03/02 03:53:00;;;;;;;;;;;;;;;-0.76;82.72;99951.23;1673773;85;20172;-73
2021/03/02 03:55:31;;;;;;;;;;;;;;;-0.78;82.79;99946.36;1673801;85;21220;-73
2021/03/02 03:57:58;;;;;;;;;;;;;;;-0.80;82.78;99940.22;1673698;85;20119;-73
2021/03/02 04:00:28;;;;;;;;;;;;;;;-0.81;82.86;99941.08;1673528;85;32627;-73
2021/03/02 04:02:55;;;;;;;;;;;;;;;-0.83;82.98;99929.66;1673782;85;20501;-73
2021/03/02 04:05:23;;;;;;;;;;;;;;;-0.86;83.03;99932.29;1673741;85;20139;-75
2021/03/02 04:07:51;;;;;;;;;;;;;;;-0.88;83.11;99931.83;1673755;85;21396;-73
2021/03/02 04:10:18;;;;;;;;;;;;;;;-0.88;83.20;99931.83;1675141;85;21064;-74
2021/03/02 04:12:47;;;;;;;;;;;;;;;-0.91;83.18;99920.86;1673886;85;20151;-74
2021/03/02 04:15:17;;;;;;;;;;;;;;;-0.93;83.26;99913.36;1671796;85;20370;-73
2021/03/02 04:17:52;;;;;;;;;;;;;;;-0.96;83.24;99906.80;1673740;85;20143;-73
2021/03/02 04:20:19;;;;;;;;;;;;;;;-0.98;83.27;99912.06;1673765;85;21394;-73
2021/03/02 04:22:47;;;;;;;;;;;;;;;-1.00;83.32;99908.97;1673740;85;20143;-73
2021/03/02 04:25:15;;;;;;;;;;;;;;;-1.01;83.37;99905.88;1673753;85;20135;-74
2021/03/02 04:27:43;;;;;;;;;;;;;;;-1.05;83.39;99900.18;1673759;85;20139;-74
2021/03/02 04:30:12;;;;;;;;;;;;;;;-1.05;83.39;99900.18;1673707;85;20147;-74
2021/03/02 04:32:39;;;;;;;;;;;;;;;-1.06;83.32;99905.00;1673814;85;21070;-74
2021/03/02 04:35:09;;;;;;;;;;;;;;;-1.09;83.34;99901.91;1673777;85;20875;-74
2021/03/02 04:37:37;;;;;;;;;;;;;;;-1.13;83.29;99901.03;1673724;85;20160;-73
2021/03/02 04:40:05;;;;;;;;;;;;;;;-1.16;83.27;99910.25;1673699;85;20119;-73
2021/03/02 04:42:35;;;;;;;;;;;;;;;-1.20;83.16;99897.05;1673806;85;20164;-73
2021/03/02 04:45:04;;;;;;;;;;;;;;;-1.24;83.19;99897.50;1673589;85;20991;-73
2021/03/02 04:47:32;;;;;;;;;;;;;;;-1.30;83.20;99908.89;1673692;85;20119;-73
2021/03/02 04:50:01;;;;;;;;;;;;;;;-1.33;83.15;99914.60;1673751;85;20160;-74
2021/03/02 04:52:28;;;;;;;;;;;;;;;-1.36;83.26;99906.68;1673842;85;20143;-74
2021/03/02 04:54:56;;;;;;;;;;;;;;;-1.40;83.44;99894.36;1673905;85;20425;-73
2021/03/02 04:57:25;;;;;;;;;;;;;;;-1.43;83.63;99886.44;1673881;85;21286;-73
2021/03/02 04:59:52;;;;;;;;;;;;;;;-1.48;83.68;99881.19;1673817;85;20139;-74
2021/03/02 05:02:19;;;;;;;;;;;;;;;-1.49;83.68;99881.60;1673952;85;20139;-74
2021/03/02 05:04:48;;;;;;;;;;;;;;;-1.52;83.73;99885.54;1673865;85;20168;-74
2021/03/02 05:07:15;;;;;;;;;;;;;;;-1.54;83.73;99884.66;1673854;85;20222;-74
2021/03/02 05:09:43;;;;;;;;;;;;;;;-1.57;83.71;99884.66;1673832;85;21796;-74
2021/03/02 05:12:13;;;;;;;;;;;;;;;-1.60;83.62;99891.23;1673855;85;20127;-73
2021/03/02 05:14:40;;;;;;;;;;;;;;;-1.62;83.59;99891.67;1673934;85;20187;-74
2021/03/02 05:17:08;;;;;;;;;;;;;;;-1.65;83.67;99892.53;1673881;85;20159;-73
2021/03/02 05:19:37;;;;;;;;;;;;;;;-1.68;83.87;99895.14;1673915;85;20156;-73
2021/03/02 05:22:04;;;;;;;;;;;;;;;-1.66;84.01;99893.84;1673818;85;21227;-73
2021/03/02 05:24:31;;;;;;;;;;;;;;;-1.67;84.07;99886.38;1673768;85;20139;-73
2021/03/02 05:26:59;;;;;;;;;;;;;;;-1.66;84.14;99879.34;1673876;85;20171;-73
2021/03/02 05:29:27;;;;;;;;;;;;;;;-1.66;84.18;99879.34;1673809;85;20143;-74
2021/03/02 05:31:54;;;;;;;;;;;;;;;-1.65;84.12;99883.75;1674025;85;20416;-74
2021/03/02 05:34:22;;;;;;;;;;;;;;;-1.66;83.94;99881.98;1673773;85;21129;-74
2021/03/02 05:36:51;;;;;;;;;;;;;;;-1.64;83.97;99885.08;1673759;85;20175;-74
2021/03/02 05:39:18;;;;;;;;;;;;;;;-1.64;83.98;99885.08;1673937;85;20147;-73
2021/03/02 05:41:47;;;;;;;;;;;;;;;-1.61;84.07;99884.19;1673878;85;20329;-74
2021/03/02 05:44:14;;;;;;;;;;;;;;;-1.57;84.17;99885.97;1673886;85;20119;-74
2021/03/02 05:46:42;;;;;;;;;;;;;;;-1.53;84.18;99873.27;1673863;85;21263;-75
2021/03/02 05:49:15;;;;;;;;;;;;;;;-1.46;84.22;99865.80;1673776;85;20143;-73
2021/03/02 05:51:43;;;;;;;;;;;;;;;-1.35;84.20;99864.96;1673963;85;20139;-74
2021/03/02 05:54:11;;;;;;;;;;;;;;;-1.24;84.14;99869.81;1673822;85;20203;-75
2021/03/02 05:56:39;;;;;;;;;;;;;;;-1.12;84.05;99880.39;1673872;85;20119;-74
2021/03/02 05:59:06;;;;;;;;;;;;;;;-1.02;83.91;99882.59;1673840;85;21357;-75
2021/03/02 06:01:37;;;;;;;;;;;;;;;-0.95;84.05;99875.11;1673748;85;20193;-75
2021/03/02 06:04:05;;;;;;;;;;;;;;;-0.86;84.05;99877.34;1673825;85;20139;-75
2021/03/02 06:06:33;;;;;;;;;;;;;;;-0.79;83.93;99875.12;1673770;85;20886;-75
2021/03/02 06:09:01;;;;;;;;;;;;;;;-0.74;83.87;99870.30;1673894;85;20123;-73
2021/03/02 06:11:32;;;;;;;;;;;;;;;-0.68;83.92;99873.36;1673818;85;21839;-73
2021/03/02 06:14:17;;;;;;;;;;;;;;;-0.60;83.90;99870.72;1673839;85;20131;-74
2021/03/02 06:16:47;;;;;;;;;;;;;;;-0.53;83.80;99873.81;1628661;85;20164;-74
2021/03/02 06:19:14;;;;;;;;;;;;;;;-0.46;83.57;99868.95;1650313;87;20121;-74
2021/03/02 06:21:43;;;;;;;;;;;;;;;-0.40;83.39;99873.36;1646484;86;20525;-74
2021/03/02 06:24:12;;;;;;;;;;;;;;;-0.33;83.26;99876.86;1667162;86;21829;-75
2021/03/02 06:26:39;;;;;;;;;;;;;;;-0.26;83.23;99864.09;1667092;86;20172;-75
2021/03/02 06:29:14;;;;;;;;;;;;;;;-0.19;83.24;99867.15;1667261;86;20140;-73
2021/03/02 06:31:45;;;;;;;;;;;;;;;-0.07;83.20;99865.80;1667121;86;20157;-73
2021/03/02 06:34:23;;;;;;;;;;;;;;;0.10;83.23;99861.80;1667216;86;20152;-76
2021/03/02 06:36:57;;;;;;;;;;;;;;;0.32;83.13;99854.66;1667147;86;21065;-75
2021/03/02 06:39:31;;;;;;;;;;;;;;;0.63;82.81;99846.58;1667082;86;20152;-73
2021/03/02 06:42:17;;;;;;;;;;;;;;;1.01;82.25;99846.77;1667212;86;20166;-75
2021/03/02 06:44:47;;;;;;;;;;;;;;;1.46;81.24;99841.55;1667372;86;20467;-75
2021/03/02 06:47:39;;;;;;;;;;;;;;;1.93;79.93;99830.91;1671983;86;20149;-75
2021/03/02 06:50:14;;;;;;;;;;;;;;;2.41;78.74;99825.88;1671953;86;22208;-74
2021/03/02 06:52:43;;;;;;;;;;;;;;;2.92;76.80;99830.91;1671861;86;20162;-76
2021/03/02 06:55:21;;;;;;;;;;;;;;;3.34;74.59;99821.84;1671809;86;20137;-75
2021/03/02 06:57:50;;;;;;;;;;;;;;;3.70;72.38;99821.63;1671876;86;20120;-74
2021/03/02 07:00:33;;;;;;;;;;;;;;;4.10;70.96;99822.64;1671869;86;20120;-72
2021/03/02 07:03:03;;;;;;;;;;;;;;;4.48;70.33;99828.97;1671839;86;21825;-74
2021/03/02 07:05:30;;;;;;;;;;;;;;;4.93;68.80;99831.48;1671833;86;20195;-73
2021/03/02 07:07:59;;;;;;;;;;;;;;;5.34;66.19;99828.27;1644987;86;20144;-74
2021/03/02 07:10:31;;;;;;;;;;;;;;;5.74;65.11;99827.72;1670481;86;20188;-76
2021/03/02 07:13:00;;;;;;;;;;;;;;;6.12;63.09;99833.34;1671871;86;20694;-76
2021/03/02 07:15:28;;;;;;;;;;;;;;;6.47;61.96;99842.59;1671815;86;21741;-74
2021/03/02 07:17:56;;;;;;;;;;;;;;;6.79;61.12;99836.73;1671788;86;20152;-74
2021/03/02 07:20:25;;;;;;;;;;;;;;;7.11;60.84;99827.72;1671764;86;20120;-77
2021/03/02 07:22:53;;;;;;;;;;;;;;;7.45;59.45;99831.93;1671877;86;20157;-76
2021/03/02 07:25:24;;;;;;;;;;;;;;;7.80;57.59;99831.65;1645351;86;20144;-70
2021/03/02 07:27:53;;;;;;;;;;;;;;;8.11;56.85;99828.75;1671882;86;22317;-76
2021/03/02 07:30:21;;;;;;;;;;;;;;;8.37;55.65;99824.23;1671728;86;20512;-74
2021/03/02 07:32:48;;;;;;;;;;;;;;;8.61;54.28;99829.17;1671821;86;20161;-74
2021/03/02 07:35:20;;;;;;;;;;;;;;;8.84;53.71;99833.61;1671696;86;20153;-73
2021/03/02 07:37:50;;;;;;;;;;;;;;;9.00;52.14;99828.07;1671855;86;20582;-71
2021/03/02 07:40:19;;;;;;;;;;;;;;;9.21;51.38;99829.47;1671829;86;21375;-66
2021/03/02 07:42:46;;;;;;;;;;;;;;;9.32;50.65;99829.90;1671788;86;20137;-73
2021/03/02 07:45:17;;;;;;;;;;;;;;;9.48;51.28;99824.77;1671834;86;20144;-73
2021/03/02 07:47:48;;;;;;;;;;;;;;;9.65;51.07;99827.19;1671215;86;20144;-73
2021/03/02 07:50:29;;;;;;;;;;;;;;;9.86;51.75;99824.06;1671493;86;20199;-74
2021/03/02 07:53:20;;;;;;;;;;;;;;;10.04;50.01;99827.29;1671663;86;21211;-74
2021/03/02 07:56:01;;;;;;;;;;;;;;;10.24;49.76;99824.17;1671613;86;20152;-76
2021/03/02 07:58:28;;;;;;;;;;;;;;;10.37;48.21;99825.37;1649090;86;20136;-75
2021/03/02 08:00:57;;;;;;;;;;;;;;;10.47;48.81;99818.64;1671808;86;20842;-76
2021/03/02 08:03:28;;;;;;;;;;;;;;;10.41;47.09;99826.98;1644903;86;20140;-76
2021/03/02 08:05:59;;;;;;;;;;;;;;;10.45;47.24;99825.02;1671773;86;21725;-76
2021/03/02 08:08:28;;;;;;;;;;;;;;;10.46;47.46;99822.27;1668165;86;20140;-77
2021/03/02 08:10:57;;;;;;;;;;;;;;;10.46;47.19;99819.58;1671764;86;20140;-78
2021/03/02 08:13:34;;;;;;;;;;;;;;;10.45;47.54;99813.83;1671818;86;20941;-77
2021/03/02 08:16:05;;;;;;;;;;;;;;;10.36;46.86;99823.65;1671866;86;20174;-78
2021/03/02 08:18:40;;;;;;;;;;;;;;;10.33;46.60;99802.30;1671827;86;21205;-77
2021/03/02 08:21:12;;;;;;;;;;;;;;;10.31;47.62;99806.81;1671719;86;20137;-76
2021/03/02 08:23:52;;;;;;;;;;;;;;;10.33;47.40;99802.30;1671830;86;20192;-77
2021/03/02 08:26:23;;;;;;;;;;;;;;;10.31;47.75;99794.73;1671821;86;20478;-76
2021/03/02 08:29:09;;;;;;;;;;;;;;;10.26;47.18;99811.53;1671959;86;20187;-79
2021/03/02 08:31:40;;;;;;;;;;;;;;;10.19;47.13;99807.40;1671956;86;21370;-78
2021/03/02 08:34:09;;;;;;;;;;;;;;;10.12;47.41;99807.67;1671852;86;20153;-79
2021/03/02 08:36:37;;;;;;;;;;;;;;;10.07;48.12;99796.25;1671947;86;20147;-80
2021/03/02 08:39:15;;;;;;;;;;;;;;;10.06;47.81;99794.52;1671881;86;21052;-81
2021/03/02 08:41:45;;;;;;;;;;;;;;;10.10;48.09;99793.91;1671963;86;20153;-79
2021/03/02 08:44:23;;;;;;;;;;;;;;;10.17;48.69;99801.20;1672011;86;22135;-77
2021/03/02 08:46:54;;;;;;;;;;;;;;;10.20;48.96;99799.28;1668625;86;20192;-80
2021/03/02 08:49:23;;;;;;;;;;;;;;;10.18;49.00;99805.64;1667103;86;20228;-78
2021/03/02 08:51:59;;;;;;;;;;;;;;;10.12;48.67;99800.96;1667110;86;20841;-73
2021/03/02 08:54:29;;;;;;;;;;;;;;;10.05;48.40;99803.51;1667120;86;20152;-74
2021/03/02 08:57:03;;;;;;;;;;;;;;;10.03;48.77;99812.11;1666992;86;21636;-74
2021/03/02 08:59:33;;;;;;;;;;;;;;;10.05;49.80;99810.70;1667014;86;20425;-73
2021/03/02 09:02:03;;;;;;;;;;;;;;;10.15;50.80;99808.47;1666985;86;20161;-73
2021/03/02 09:04:32;;;;;;;;;;;;;;;10.25;51.26;99813.84;1667009;86;20144;-72
2021/03/02 09:07:00;;;;;;;;;;;;;;;10.36;50.34;99819.62;1667094;86;20180;-72
2021/03/02 09:09:30;;;;;;;;;;;;;;;10.41;49.98;99809.52;1667020;86;21571;-77
2021/03/02 09:11:59;;;;;;;;;;;;;;;10.44;49.63;99807.19;1667056;86;20145;-77
2021/03/02 09:14:34;;;;;;;;;;;;;;;10.47;50.19;99805.22;1666499;86;20246;-73
2021/03/02 09:17:06;;;;;;;;;;;;;;;10.47;50.57;99806.56;1666891;86;20165;-73
2021/03/02 09:19:40;;;;;;;;;;;;;;;10.43;50.01;99811.66;1667082;86;20161;-73
2021/03/02 09:22:20;;;;;;;;;;;;;;;10.45;50.15;99810.25;1665918;86;21362;-73
2021/03/02 09:24:56;;;;;;;;;;;;;;;10.48;50.84;99812.34;1667143;86;20141;-73
2021/03/02 09:27:32;;;;;;;;;;;;;;;10.49;50.96;99810.03;1667075;86;20208;-73
2021/03/02 09:29:59;;;;;;;;;;;;;;;10.50;50.85;99802.87;1667098;86;20252;-71
2021/03/02 09:32:31;;;;;;;;;;;;;;;10.47;50.95;99807.90;1667123;86;20165;-70
2021/03/02 09:35:00;;;;;;;;;;;;;;;10.43;50.85;99806.28;1667118;86;22216;-70
2021/03/02 09:37:30;;;;;;;;;;;;;;;10.39;51.60;99807.39;1667069;86;20145;-70
2021/03/02 09:40:02;;;;;;;;;;;;;;;10.37;51.30;99800.34;1667056;86;20141;-69
2021/03/02 09:42:33;;;;;;;;;;;;;;;10.34;50.76;99801.34;1667106;86;20161;-69
2021/03/02 09:45:02;;;;;;;;;;;;;;;10.34;50.23;99798.66;1667097;86;20164;-69
2021/03/02 09:47:33;;;;;;;;;;;;;;;10.31;50.75;99799.66;1677650;85;21216;-70
2021/03/02 09:50:13;;;;;;;;;;;;;;;10.37;51.35;99801.20;1680149;85;20140;-70
2021/03/02 09:52:41;;;;;;;;;;;;;;;10.40;50.77;99804.22;1679596;85;20124;-70
2021/03/02 09:55:26;;;;;;;;;;;;;;;10.47;51.16;99802.53;1680280;85;20811;-70
2021/03/02 09:58:07;;;;;;;;;;;;;;;10.52;51.17;99802.80;1680247;85;20169;-69
2021/03/02 10:00:37;;;;;;;;;;;;;;;10.59;51.91;99793.48;1680174;85;21222;-68
2021/03/02 10:03:14;;;;;;;;;;;;;;;10.64;51.86;99798.16;1680218;85;20168;-69
2021/03/02 10:05:58;;;;;;;;;;;;;;;10.66;51.18;99797.64;1680307;85;20136;-70
2021/03/02 10:08:38;;;;;;;;;;;;;;;10.64;50.59;99792.79;1680188;85;20140;-71
2021/03/02 10:11:14;;;;;;;;;;;;;;;10.70;51.50;99788.47;1680192;85;20136;-69
2021/03/02 10:13:48;;;;;;;;;;;;;;;10.68;50.77;99786.34;1680184;85;21226;-70
2021/03/02 10:16:48;;;;;;;;;;;;;;;10.72;51.37;99778.55;1680186;85;20120;-67
2021/03/02 10:19:16;;;;;;;;;;;;;;;10.72;49.83;99781.23;1680048;85;20156;-69
2021/03/02 10:21:50;;;;;;;;;;;;;;;10.70;50.62;99796.53;1680180;85;20120;-68
2021/03/02 10:24:20;;;;;;;;;;;;;;;10.70;50.72;99792.98;1680207;85;20152;-70
2021/03/02 10:26:50;;;;;;;;;;;;;;;10.70;51.72;99794.33;1680173;85;21374;-69
2021/03/02 10:29:17;;;;;;;;;;;;;;;10.68;51.09;99786.34;1680119;85;20441;-68
2021/03/02 10:31:45;;;;;;;;;;;;;;;10.73;51.22;99793.70;1680225;85;20136;-68
2021/03/02 10:34:14;;;;;;;;;;;;;;;10.76;51.22;99789.52;1680109;85;20123;-68
2021/03/02 10:36:42;;;;;;;;;;;;;;;10.80;51.58;99792.92;1680210;85;20128;-69
2021/03/02 10:39:11;;;;;;;;;;;;;;;10.82;51.11;99785.20;1680225;85;21464;-68
2021/03/02 10:41:42;;;;;;;;;;;;;;;10.82;49.89;99785.20;1680159;85;20195;-69
2021/03/02 10:44:09;;;;;;;;;;;;;;;10.85;49.67;99778.33;1680126;85;20503;-68
2021/03/02 10:46:36;;;;;;;;;;;;;;;10.80;49.01;99769.63;1675873;85;20127;-68
2021/03/02 10:49:07;;;;;;;;;;;;;;;10.80;48.56;99761.57;1667083;86;20386;-68
2021/03/02 10:51:35;;;;;;;;;;;;;;;10.79;48.67;99767.88;1666984;86;21121;-68
2021/03/02 10:54:02;;;;;;;;;;;;;;;10.77;48.90;99772.47;1666999;86;20120;-68
2021/03/02 10:56:30;;;;;;;;;;;;;;;10.80;49.69;99769.63;1667045;86;20137;-68
2021/03/02 10:58:58;;;;;;;;;;;;;;;10.78;49.32;99763.44;1666996;86;20140;-69
2021/03/02 11:01:25;;;;;;;;;;;;;;;10.78;49.19;99763.44;1667042;86;20140;-69
2021/03/02 11:03:53;;;;;;;;;;;;;;;10.75;48.63;99758.69;1667082;86;21208;-68
2021/03/02 11:06:21;;;;;;;;;;;;;;;10.72;49.19;99747.64;1666989;86;20213;-68
2021/03/02 11:08:52;;;;;;;;;;;;;;;10.72;49.12;99752.13;1667182;86;20218;-68
2021/03/02 11:11:22;;;;;;;;;;;;;;;10.74;49.99;99761.00;1667059;86;20188;-68
2021/03/02 11:13:49;;;;;;;;;;;;;;;10.72;49.87;99746.30;1667061;86;20161;-68
2021/03/02 11:16:16;;;;;;;;;;;;;;;10.72;49.50;99744.06;1667029;86;21385;-68
2021/03/02 11:18:45;;;;;;;;;;;;;;;10.70;48.89;99745.95;1666985;86;20161;-68
2021/03/02 11:21:13;;;;;;;;;;;;;;;10.72;49.38;99734.20;1666974;86;20160;-68
2021/03/02 11:23:40;;;;;;;;;;;;;;;10.72;48.71;99742.27;1667030;86;20184;-68
2021/03/02 11:26:09;;;;;;;;;;;;;;;10.73;49.15;99741.30;1666961;86;20140;-68
2021/03/02 11:28:36;;;;;;;;;;;;;;;10.73;48.55;99732.38;1667026;86;21391;-68
2021/03/02 11:31:04;;;;;;;;;;;;;;;10.75;48.70;99734.05;1666938;86;20137;-68
2021/03/02 11:33:33;;;;;;;;;;;;;;;10.77;48.68;99732.16;1667031;86;20149;-69
2021/03/02 11:36:04;;;;;;;;;;;;;;;10.79;49.04;99732.94;1666970;86;20169;-67
2021/03/02 11:38:31;;;;;;;;;;;;;;;10.79;48.48;99736.97;1667022;86;20144;-68
2021/03/02 11:41:00;;;;;;;;;;;;;;;10.82;47.78;99729.24;1666974;86;21218;-67
2021/03/02 11:43:27;;;;;;;;;;;;;;;10.82;47.74;99730.10;1667010;86;20137;-67
2021/03/02 11:45:55;;;;;;;;;;;;;;;10.84;48.06;99735.41;1666997;86;20141;-68
2021/03/02 11:48:23;;;;;;;;;;;;;;;10.84;48.14;99730.89;1671325;86;20161;-69
2021/03/02 11:50:52;;;;;;;;;;;;;;;10.87;48.35;99731.70;1671495;86;20148;-68
2021/03/02 11:53:19;;;;;;;;;;;;;;;10.89;48.55;99719.05;1671863;86;21389;-68
2021/03/02 11:55:48;;;;;;;;;;;;;;;10.93;48.42;99720.66;1671785;86;20120;-67
2021/03/02 11:58:15;;;;;;;;;;;;;;;10.94;48.30;99709.83;1671872;86;20157;-67
2021/03/02 12:00:42;;;;;;;;;;;;;;;10.97;47.30;99716.84;1671754;86;20156;-67
2021/03/02 12:03:13;;;;;;;;;;;;;;;10.99;48.06;99712.28;1671369;86;20148;-69
2021/03/02 12:05:40;;;;;;;;;;;;;;;10.99;47.68;99717.17;1671820;86;21386;-69
2021/03/02 12:08:10;;;;;;;;;;;;;;;10.97;47.07;99715.05;1671796;86;20148;-68
2021/03/02 12:10:38;;;;;;;;;;;;;;;11.00;47.69;99709.97;1671793;86;20124;-68
2021/03/02 12:13:06;;;;;;;;;;;;;;;11.01;47.35;99715.76;1671807;86;20168;-67
2021/03/02 12:15:33;;;;;;;;;;;;;;;11.02;47.21;99700.89;1671840;86;20164;-67
2021/03/02 12:18:01;;;;;;;;;;;;;;;11.06;47.74;99709.67;1671806;86;21163;-68
2021/03/02 12:20:30;;;;;;;;;;;;;;;11.06;46.80;99698.91;1671772;86;20188;-68
2021/03/02 12:22:59;;;;;;;;;;;;;;;11.05;46.31;99701.19;1671816;86;20157;-69
2021/03/02 12:25:27;;;;;;;;;;;;;;;11.08;47.24;99700.18;1671804;86;20144;-68
2021/03/02 12:27:56;;;;;;;;;;;;;;;11.09;46.98;99693.38;1671822;86;20117;-69
2021/03/02 12:30:25;;;;;;;;;;;;;;;11.11;48.20;99683.41;1671830;86;21195;-68
2021/03/02 12:32:53;;;;;;;;;;;;;;;11.13;47.96;99681.98;1671744;86;20121;-68
2021/03/02 12:35:21;;;;;;;;;;;;;;;11.15;47.47;99690.38;1671812;86;20140;-67
2021/03/02 12:37:49;;;;;;;;;;;;;;;11.16;47.75;99694.82;1671784;86;20140;-67
2021/03/02 12:40:20;;;;;;;;;;;;;;;11.18;47.77;99683.50;1671848;86;20165;-69
2021/03/02 12:42:47;;;;;;;;;;;;;;;11.19;46.69;99682.56;1671866;86;21160;-69
2021/03/02 12:45:15;;;;;;;;;;;;;;;11.19;45.68;99682.56;1671737;86;20136;-68
2021/03/02 12:47:44;;;;;;;;;;;;;;;11.21;45.41;99682.00;1669336;86;20132;-68
2021/03/02 12:50:12;;;;;;;;;;;;;;;11.23;46.15;99679.72;1666924;86;20912;-69
2021/03/02 12:52:41;;;;;;;;;;;;;;;11.26;46.34;99692.98;1667051;86;20160;-67
2021/03/02 12:55:11;;;;;;;;;;;;;;;11.25;46.22;99685.88;1666957;86;21296;-69
2021/03/02 12:57:41;;;;;;;;;;;;;;;11.28;46.11;99685.23;1666893;86;21180;-68
2021/03/02 13:00:09;;;;;;;;;;;;;;;11.30;46.38;99683.81;1666930;86;20165;-69
2021/03/02 13:02:37;;;;;;;;;;;;;;;11.30;44.71;99687.84;1666983;86;20144;-69